createdAt,value
2023-03-17T00:02:19.893Z,68.04
2023-03-17T00:04:21.103Z,67.47
2023-03-17T00:06:22.424Z,68.17
2023-03-17T00:08:23.603Z,67.82
2023-03-17T00:10:25.491Z,68.39
2023-03-17T00:12:26.567Z,68.29
2023-03-17T00:14:28.126Z,68.22
2023-03-17T00:16:29.913Z,68.14
2023-03-17T00:18:31.808Z,68.05
2023-03-17T00:20:33.679Z,68.02
2023-03-17T00:22:35.308Z,68.14
2023-03-17T00:24:37.187Z,68.02
2023-03-17T00:28:39.536Z,68.25
2023-03-17T00:30:41.535Z,68.51
2023-03-17T00:34:44.501Z,68.81
2023-03-17T00:36:45.789Z,69.11
2023-03-17T00:38:47.037Z,69.19
2023-03-17T00:40:48.252Z,69.27
2023-03-17T00:42:49.833Z,69.27
2023-03-17T00:44:50.924Z,69.05
2023-03-17T00:46:52.009Z,69.58
2023-03-17T00:50:55.444Z,69.94
2023-03-17T00:52:56.410Z,69.66
2023-03-17T00:54:58.346Z,68.89
2023-03-17T00:56:59.988Z,69.97
2023-03-17T01:01:03.116Z,69.3
2023-03-17T01:03:04.120Z,70.18
2023-03-17T01:05:06.494Z,69.12
2023-03-17T01:07:07.175Z,70.6
2023-03-17T01:09:08.710Z,70.26
2023-03-17T01:11:10.070Z,70.31
2023-03-17T01:13:11.294Z,70.76
2023-03-17T01:15:12.762Z,69.99
2023-03-17T01:17:14.073Z,70.5
2023-03-17T01:19:15.659Z,69.77
2023-03-17T01:21:16.886Z,70.17
2023-03-17T01:23:17.927Z,70.39
2023-03-17T01:25:19.471Z,70.91
2023-03-17T01:26:03.350Z,70.78
2023-03-17T01:28:04.492Z,72.2
2023-03-17T01:30:06.002Z,72.13
2023-03-17T01:32:07.672Z,71.7
2023-03-17T01:34:09.216Z,72.08
2023-03-17T01:36:10.791Z,71.83
2023-03-17T01:38:12.127Z,70.73
2023-03-17T01:40:14.088Z,70.59
2023-03-17T01:44:16.695Z,71.38
2023-03-17T01:46:18.402Z,71.26
2023-03-17T01:48:19.484Z,72.05
2023-03-17T01:50:21.193Z,71.88
2023-03-17T01:54:24.201Z,70.91
2023-03-17T01:56:26.162Z,71.18
2023-03-17T01:58:28.001Z,71.61
2023-03-17T02:00:29.909Z,71.02
2023-03-17T02:02:31.562Z,71.7
2023-03-17T02:04:33.049Z,71.82
2023-03-17T02:06:35.819Z,71.68
2023-03-17T02:08:35.569Z,71.27
2023-03-17T02:10:36.692Z,72.34
2023-03-17T02:12:38.486Z,72.57
2023-03-17T02:14:39.535Z,73.34
2023-03-17T02:16:40.878Z,74.4
2023-03-17T02:18:41.980Z,74.29
2023-03-17T02:20:43.475Z,76.59
2023-03-17T02:22:44.772Z,74.56
2023-03-17T02:26:47.222Z,73.93
2023-03-17T02:28:48.499Z,73.42
2023-03-17T02:30:50.286Z,73.73
2023-03-17T02:32:51.728Z,73.79
2023-03-17T02:36:54.940Z,75.41
2023-03-17T02:38:56.064Z,75.51
2023-03-17T02:40:57.713Z,75.32
2023-03-17T02:42:58.795Z,75.5
2023-03-17T02:45:00.357Z,75.2
2023-03-17T02:47:01.654Z,75.25
2023-03-17T02:49:03.068Z,75.73
2023-03-17T02:51:04.985Z,76.2
2023-03-17T02:53:06.871Z,75.33
2023-03-17T02:55:08.157Z,74.75
2023-03-17T02:57:09.794Z,74.14
2023-03-17T02:59:11.290Z,74.74
2023-03-17T03:01:12.415Z,74.74
2023-03-17T03:03:13.697Z,77.53
2023-03-17T03:05:15.229Z,77.18
2023-03-17T03:09:18.996Z,77.7
2023-03-17T03:11:19.973Z,77.27
2023-03-17T03:13:21.054Z,77
2023-03-17T03:15:22.376Z,76.97
2023-03-17T03:19:25.217Z,79.54
2023-03-17T03:21:26.398Z,79.33
2023-03-17T03:23:27.652Z,79.23
2023-03-17T03:25:28.916Z,77.06
2023-03-17T03:27:30.484Z,75.74
2023-03-17T03:29:31.524Z,74.94
2023-03-17T03:31:32.681Z,74.76
2023-03-17T03:33:34.280Z,75.63
2023-03-17T03:35:35.888Z,76.5
2023-03-17T03:37:37.668Z,77.8
2023-03-17T03:39:39.491Z,78.62
2023-03-17T03:41:41.380Z,78.98
2023-03-17T03:43:42.846Z,79.67
2023-03-17T03:45:44.495Z,79.87
2023-03-17T03:47:46.314Z,80.11
2023-03-17T03:49:47.670Z,79.96
2023-03-17T03:51:49.010Z,80.33
2023-03-17T03:53:50.874Z,80.44
2023-03-17T03:55:52.106Z,80.66
2023-03-17T03:57:53.133Z,81.29
2023-03-17T03:59:54.287Z,81.14
2023-03-17T04:01:55.492Z,80.84
2023-03-17T04:03:57.136Z,80.97
2023-03-17T04:08:00.532Z,80.99
2023-03-17T04:10:02.543Z,81.34
2023-03-17T04:12:04.350Z,81.28
2023-03-17T04:14:05.906Z,81.31
2023-03-17T04:16:07.655Z,81.32
2023-03-17T04:18:08.721Z,81.72
2023-03-17T04:20:09.812Z,82.14
2023-03-17T04:22:11.083Z,81.94
2023-03-17T04:24:12.469Z,82.45
2023-03-17T04:26:13.757Z,83.44
2023-03-17T04:28:15.160Z,83.16
2023-03-17T04:30:16.187Z,83.09
2023-03-17T04:32:17.478Z,83.46
2023-03-17T04:34:18.980Z,84.25
2023-03-17T04:36:20.833Z,84.07
2023-03-17T04:38:22.020Z,84.31
2023-03-17T04:40:23.515Z,84.95
2023-03-17T04:42:25.019Z,85.82
2023-03-17T04:44:26.535Z,86.44
2023-03-17T04:46:28.448Z,86.71
2023-03-17T04:48:29.584Z,86.69
2023-03-17T04:50:30.878Z,86.63
2023-03-17T04:52:32.286Z,86.87
2023-03-17T04:54:33.687Z,87.66
2023-03-17T04:56:34.752Z,88.12
2023-03-17T05:00:37.822Z,88.96
2023-03-17T05:02:39.109Z,89.1
2023-03-17T05:04:39.953Z,88.96
2023-03-17T05:06:41.959Z,88.94
2023-03-17T05:08:43.080Z,88.73
2023-03-17T05:10:44.417Z,88.75
2023-03-17T05:12:45.871Z,88.98
2023-03-17T05:14:47.584Z,88.93
2023-03-17T05:16:49.324Z,89.2
2023-03-17T05:18:51.095Z,89.41
2023-03-17T05:20:52.399Z,89.77
2023-03-17T05:22:54.051Z,90.18
2023-03-17T05:24:55.769Z,90.48
2023-03-17T05:26:56.941Z,90.14
2023-03-17T05:28:58.404Z,89.56
2023-03-17T05:33:00.757Z,88.58
2023-03-17T05:35:02.458Z,88.91
2023-03-17T05:37:03.788Z,89.37
2023-03-17T05:39:05.297Z,89.46
2023-03-17T05:43:07.837Z,88.96
2023-03-17T05:45:09.407Z,89.04
2023-03-17T05:47:11.008Z,89.11
2023-03-17T05:49:12.508Z,88.82
2023-03-17T05:51:13.680Z,88.89
2023-03-17T05:53:15.167Z,88.8
2023-03-17T05:55:16.861Z,88.61
2023-03-17T05:57:18.472Z,88.78
2023-03-17T05:59:20.034Z,89.12
2023-03-17T06:01:21.392Z,88.93
2023-03-17T06:03:22.575Z,88.62
2023-03-17T06:05:23.655Z,88.4
2023-03-17T06:07:25.351Z,88.58
2023-03-17T06:09:26.592Z,88.61
2023-03-17T06:11:27.832Z,87.69
2023-03-17T06:13:29.081Z,86.29
2023-03-17T06:15:30.920Z,86.78
2023-03-17T06:17:32.262Z,86.94
2023-03-17T06:19:33.445Z,87.48
2023-03-17T06:21:34.596Z,87.62
2023-03-17T06:25:37.772Z,88.06
2023-03-17T06:27:39.618Z,85.16
2023-03-17T06:29:41.585Z,81.13
2023-03-17T06:31:43.135Z,81.34
2023-03-17T06:33:44.104Z,83.79
2023-03-17T06:35:45.550Z,83.77
2023-03-17T06:37:46.814Z,83.72
2023-03-17T06:41:50.231Z,82.75
2023-03-17T06:43:51.673Z,82.61
2023-03-17T06:45:53.555Z,77.57
2023-03-17T06:47:54.725Z,79.87
2023-03-17T06:49:55.980Z,81.73
2023-03-17T06:51:57.011Z,80.31
2023-03-17T06:53:58.853Z,80.04
2023-03-17T06:56:00.579Z,79.89
2023-03-17T06:58:02.434Z,79.52
2023-03-17T07:00:03.799Z,78.26
2023-03-17T07:02:05.536Z,78.15
2023-03-17T07:04:07.375Z,78.58
2023-03-17T07:06:08.863Z,78.32
2023-03-17T07:08:10.225Z,78.69
2023-03-17T07:10:11.650Z,78.53
2023-03-17T07:14:14.933Z,74.69
2023-03-17T07:16:16.348Z,74.63
2023-03-17T07:18:18.152Z,75.45
2023-03-17T07:20:19.619Z,75.24
2023-03-17T07:24:22.541Z,76.32
2023-03-17T07:26:32.394Z,78.31
2023-03-17T07:28:25.982Z,78.23
2023-03-17T07:30:27.191Z,76.5
2023-03-17T07:32:28.718Z,78.52
2023-03-17T07:34:29.875Z,79.48
2023-03-17T07:36:31.716Z,78.23
2023-03-17T07:38:32.826Z,75.49
2023-03-17T07:40:35.369Z,74.14
2023-03-17T07:42:36.316Z,73.87
2023-03-17T07:44:37.547Z,75.26
2023-03-17T07:46:39.403Z,75.14
2023-03-17T07:48:40.845Z,73.02
2023-03-17T07:50:42.568Z,73.7
2023-03-17T07:52:43.646Z,72.57
2023-03-17T07:56:46.661Z,70.11
2023-03-17T07:58:47.969Z,71.65
2023-03-17T08:00:49.552Z,71.28
2023-03-17T08:03:03.324Z,71.39
2023-03-17T08:06:53.707Z,68.7
2023-03-17T08:08:54.620Z,68.22
2023-03-17T08:10:56.352Z,68.52
2023-03-17T08:11:40.081Z,66.44
2023-03-17T08:13:41.802Z,64.25
2023-03-17T08:15:43.418Z,64.79
2023-03-17T08:17:44.370Z,66.02
2023-03-17T08:19:45.186Z,64.02
2023-03-17T08:21:46.651Z,67.72
2023-03-17T08:23:47.808Z,70.46
2023-03-17T08:25:49.240Z,67.25
2023-03-17T08:27:50.216Z,67.55
2023-03-17T08:29:51.027Z,63.53
2023-03-17T08:33:52.954Z,67.09
2023-03-17T08:35:54.300Z,67.78
2023-03-17T08:37:56.260Z,67.67
2023-03-17T08:39:56.669Z,64.79
2023-03-17T08:43:59.272Z,67.59
2023-03-17T08:46:00.856Z,67.46
2023-03-17T08:48:01.801Z,67.17
2023-03-17T08:50:03.249Z,67.98
2023-03-17T08:52:04.641Z,65.21
2023-03-17T08:54:05.591Z,66.91
2023-03-17T08:56:08.153Z,64
2023-03-17T08:58:09.878Z,64.72
2023-03-17T09:00:11.426Z,64.42
2023-03-17T09:02:13.065Z,65.64
2023-03-17T09:04:14.746Z,64.68
2023-03-17T09:06:15.726Z,66.6
2023-03-17T09:08:16.863Z,61.61
2023-03-17T09:10:19.308Z,60.5
2023-03-17T09:12:20.576Z,61.15
2023-03-17T09:14:22.349Z,59
2023-03-17T09:16:24.439Z,59.16
2023-03-17T09:18:25.988Z,60.86
2023-03-17T09:20:27.014Z,62.91
2023-03-17T09:22:28.329Z,60.4
2023-03-17T09:26:31.650Z,63.98
2023-03-17T09:28:32.507Z,61.15
2023-03-17T09:32:36.109Z,55.92
2023-03-17T09:34:37.516Z,57.01
2023-03-17T09:36:38.655Z,56.66
2023-03-17T09:38:40.200Z,56.15
2023-03-17T09:40:41.101Z,57.96
2023-03-17T09:42:41.936Z,59.42
2023-03-17T09:44:43.095Z,57.2
2023-03-17T09:46:45.020Z,56.86
2023-03-17T09:48:46.192Z,57.39
2023-03-17T09:50:47.704Z,57.89
2023-03-17T09:52:51.336Z,56.98
2023-03-17T09:54:50.256Z,56.43
2023-03-17T09:56:51.716Z,54.52
2023-03-17T09:58:53.264Z,56.3
2023-03-17T10:00:54.266Z,55.73
2023-03-17T10:02:55.490Z,55.32
2023-03-17T10:04:56.761Z,56.37
2023-03-17T10:06:59.219Z,54.97
2023-03-17T10:09:00.479Z,53.19
2023-03-17T10:11:02.182Z,53.88
2023-03-17T10:13:03.359Z,53.44
2023-03-17T10:15:05.704Z,57.59
2023-03-17T10:17:06.953Z,52.97
2023-03-17T10:19:08.003Z,52.18
2023-03-17T10:21:09.248Z,52.77
2023-03-17T10:25:11.475Z,53.04
2023-03-17T10:27:12.699Z,49.47
2023-03-17T10:29:14.461Z,51.28
2023-03-17T10:31:16.060Z,48.88
2023-03-17T10:33:17.392Z,47.94
2023-03-17T10:35:19.073Z,50.66
2023-03-17T10:37:20.004Z,45.71
2023-03-17T10:39:21.209Z,46.25
2023-03-17T10:41:22.816Z,46.26
2023-03-17T10:43:23.882Z,45
2023-03-17T10:45:24.683Z,48.04
2023-03-17T10:47:25.955Z,45.83
2023-03-17T10:49:27.438Z,48.79
2023-03-17T10:51:28.266Z,47.29
2023-03-17T10:53:29.555Z,43.82
2023-03-17T10:57:32.016Z,45.68
2023-03-17T10:59:33.605Z,40.95
2023-03-17T11:01:35.324Z,42.85
2023-03-17T11:03:36.892Z,44.4
2023-03-17T11:07:39.058Z,42.29
2023-03-17T11:09:40.474Z,42.39
2023-03-17T11:11:41.704Z,44.68
2023-03-17T11:13:42.680Z,42.76
2023-03-17T11:15:43.803Z,46.63
2023-03-17T11:17:45.018Z,40.97
2023-03-17T11:19:46.077Z,42.37
2023-03-17T11:21:47.164Z,41.15
2023-03-17T11:23:48.399Z,41.64
2023-03-17T11:25:50.560Z,44.15
2023-03-17T11:27:52.020Z,45
2023-03-17T11:29:53.534Z,46.29
2023-03-17T11:31:55.298Z,44.56
2023-03-17T11:33:56.326Z,45.79
2023-03-17T11:35:58.066Z,42.34
2023-03-17T11:37:59.316Z,41.66
2023-03-17T11:40:00.280Z,44.81
2023-03-17T11:42:01.832Z,42.6
2023-03-17T11:44:03.252Z,42.58
2023-03-17T11:46:05.008Z,41.87
2023-03-17T11:50:07.429Z,41.59
2023-03-17T11:52:09.138Z,41.96
2023-03-17T11:56:11.037Z,42.63
2023-03-17T11:58:12.426Z,41.48
2023-03-17T12:00:13.467Z,40.47
2023-03-17T12:02:14.613Z,41.23
2023-03-17T12:06:17.726Z,40.18
2023-03-17T12:08:19.030Z,40.57
2023-03-17T12:10:19.878Z,42.52
2023-03-17T12:12:21.605Z,42.69
2023-03-17T12:14:23.046Z,41.97
2023-03-17T12:16:24.566Z,41.6
2023-03-17T12:18:25.582Z,41.71
2023-03-17T12:20:26.668Z,41.55
2023-03-17T12:22:28.503Z,42.16
2023-03-17T12:24:29.281Z,43.23
2023-03-17T12:26:30.484Z,45.02
2023-03-17T12:28:41.333Z,45.58
2023-03-17T12:30:32.588Z,40.99
2023-03-17T12:32:33.437Z,40.99
2023-03-17T12:34:34.922Z,40.39
2023-03-17T12:36:36.621Z,41.43
2023-03-17T12:38:38.201Z,38.73
2023-03-17T12:40:39.267Z,39.33
2023-03-17T12:42:40.317Z,39.37
2023-03-17T12:44:41.445Z,42.27
2023-03-17T12:48:43.543Z,40.67
2023-03-17T12:50:44.782Z,41.98
2023-03-17T12:52:45.831Z,43.12
2023-03-17T12:54:47.240Z,41.95
2023-03-17T12:56:49.041Z,39.72
2023-03-17T12:58:50.409Z,42.52
2023-03-17T13:00:51.280Z,42.69
2023-03-17T13:02:52.486Z,43.02
2023-03-17T13:04:54.051Z,44.21
2023-03-17T13:06:55.111Z,47.27
2023-03-17T13:08:56.911Z,42.02
2023-03-17T13:10:57.998Z,42.58
2023-03-17T13:12:59.593Z,42.59
2023-03-17T13:15:01.053Z,43.43
2023-03-17T13:17:02.433Z,40.32
2023-03-17T13:19:03.859Z,40.49
2023-03-17T13:21:05.798Z,39.27
2023-03-17T13:23:06.828Z,38.68
2023-03-17T13:25:08.475Z,39.03
2023-03-17T13:27:10.092Z,40.63
2023-03-17T13:31:12.657Z,39.22
2023-03-17T13:33:15.708Z,41.84
2023-03-17T13:37:16.370Z,42.66
2023-03-17T13:39:19.617Z,40.4
2023-03-17T13:41:18.653Z,42.65
2023-03-17T13:43:19.481Z,41.35
2023-03-17T13:47:21.832Z,37.36
2023-03-17T13:49:23.576Z,36.7
2023-03-17T13:51:24.458Z,39.74
2023-03-17T13:53:25.475Z,36.93
2023-03-17T13:55:26.413Z,36.6
2023-03-17T13:57:27.668Z,38.73
2023-03-17T13:59:28.799Z,39.36
2023-03-17T14:01:29.741Z,36.24
2023-03-17T14:03:31.175Z,37.78
2023-03-17T14:05:33.088Z,39.76
2023-03-17T14:07:34.396Z,40.4
2023-03-17T14:09:35.875Z,41.64
2023-03-17T14:11:37.394Z,42.58
2023-03-17T14:13:38.764Z,42.48
2023-03-17T14:15:39.866Z,45.05
2023-03-17T14:17:41.409Z,39.44
2023-03-17T14:19:42.179Z,43.98
2023-03-17T14:21:43.327Z,44.58
2023-03-17T14:23:44.177Z,43.87
2023-03-17T14:25:45.320Z,42.63
2023-03-17T14:29:48.432Z,44.03
2023-03-17T14:31:49.359Z,40.94
2023-03-17T14:33:50.524Z,45.89
2023-03-17T14:35:51.982Z,41.57
2023-03-17T14:37:53.093Z,43.42
2023-03-17T14:39:54.460Z,42.82
2023-03-17T14:41:55.780Z,44.51
2023-03-17T14:45:58.337Z,42.95
2023-03-17T14:47:59.169Z,43.48
2023-03-17T14:50:00.039Z,45.24
2023-03-17T14:52:01.719Z,43.67
2023-03-17T14:54:02.992Z,45.49
2023-03-17T14:56:04.532Z,44.99
2023-03-17T14:56:48.243Z,45.27
2023-03-17T14:58:49.406Z,45.66
2023-03-17T15:00:50.348Z,45.07
2023-03-17T15:02:51.273Z,45.95
2023-03-17T15:04:52.456Z,47.21
2023-03-17T15:06:53.419Z,46.03
2023-03-17T15:08:54.638Z,45.66
2023-03-17T15:12:57.971Z,44.49
2023-03-17T15:14:59.646Z,44.21
2023-03-17T15:17:01.522Z,44.88
2023-03-17T15:19:03.033Z,44.28
2023-03-17T15:23:06.526Z,44.12
2023-03-17T15:25:08.260Z,43.62
2023-03-17T15:27:17.489Z,45.65
2023-03-17T15:29:11.215Z,45.56
2023-03-17T15:31:12.998Z,43.92
2023-03-17T15:33:14.369Z,44.87
2023-03-17T15:35:16.090Z,44.54
2023-03-17T15:37:17.901Z,45.39
2023-03-17T15:39:19.557Z,44.88
2023-03-17T15:41:21.025Z,44.79
2023-03-17T15:43:22.693Z,45.54
2023-03-17T15:45:24.443Z,47.51
2023-03-17T15:47:25.829Z,47.43
2023-03-17T15:49:27.337Z,50.01
2023-03-17T15:51:28.779Z,49.79
2023-03-17T15:55:31.262Z,52.47
2023-03-17T15:57:32.286Z,50.67
2023-03-17T15:59:33.369Z,50.28
2023-03-17T16:01:34.842Z,49.95
2023-03-17T16:05:37.178Z,51.68
2023-03-17T16:07:38.403Z,52.41
2023-03-17T16:09:39.930Z,51.47
2023-03-17T16:11:41.740Z,53.59
2023-03-17T16:13:43.572Z,53.55
2023-03-17T16:15:44.985Z,53.4
2023-03-17T16:17:46.272Z,52.72
2023-03-17T16:19:47.964Z,52.55
2023-03-17T16:21:49.604Z,52.92
2023-03-17T16:23:50.746Z,52.72
2023-03-17T16:25:53.922Z,48.78
2023-03-17T16:27:53.435Z,51.1
2023-03-17T16:29:55.305Z,51.25
2023-03-17T16:31:56.863Z,50.66
2023-03-17T16:33:57.930Z,50.91
2023-03-17T16:35:59.555Z,52.06
2023-03-17T16:38:00.873Z,51.11
2023-03-17T16:40:01.782Z,51.64
2023-03-17T16:42:03.254Z,53.33
2023-03-17T16:44:04.198Z,55.58
2023-03-17T16:48:06.278Z,57.05
2023-03-17T16:50:07.205Z,57.52
2023-03-17T16:52:08.650Z,59.24
2023-03-17T16:54:10.476Z,60.74
2023-03-17T16:56:11.821Z,53.98
2023-03-17T16:58:12.869Z,57.09
2023-03-17T17:00:14.485Z,52.12
2023-03-17T17:02:16.166Z,55.76
2023-03-17T17:04:17.617Z,57.92
2023-03-17T17:06:19.040Z,58.36
2023-03-17T17:08:20.746Z,59.22
2023-03-17T17:10:22.217Z,59.01
2023-03-17T17:12:23.228Z,62.59
2023-03-17T17:14:24.672Z,57.3
2023-03-17T17:16:26.259Z,57.75
2023-03-17T17:20:29.320Z,57.09
2023-03-17T17:22:30.402Z,59.07
2023-03-17T17:24:31.616Z,59.07
2023-03-17T17:26:32.837Z,58.19
2023-03-17T17:30:35.175Z,57.92
2023-03-17T17:32:36.528Z,57.84
2023-03-17T17:34:37.565Z,58.62
2023-03-17T17:36:38.574Z,56.12
2023-03-17T17:38:39.910Z,54.23
2023-03-17T17:40:41.058Z,57.97
2023-03-17T17:42:42.099Z,60.36
2023-03-17T17:46:44.328Z,59.69
2023-03-17T17:48:45.328Z,55.6
2023-03-17T17:50:46.945Z,55.35
2023-03-17T17:52:48.071Z,57.54
2023-03-17T17:54:49.315Z,56.61
2023-03-17T17:56:50.714Z,59.65
2023-03-17T17:58:52.444Z,58.05
2023-03-17T18:00:53.880Z,58.08
2023-03-17T18:02:55.550Z,59.07
2023-03-17T18:04:56.576Z,60.32
2023-03-17T18:06:57.759Z,60.55
2023-03-17T18:08:58.717Z,61.62
2023-03-17T18:11:00.022Z,58.64
2023-03-17T18:13:01.173Z,56.52
2023-03-17T18:15:03.006Z,55.25
2023-03-17T18:17:04.281Z,55.95
2023-03-17T18:19:05.765Z,55.87
2023-03-17T18:21:06.918Z,60.17
2023-03-17T18:23:08.485Z,59.51
2023-03-17T18:25:10.144Z,58.96
2023-03-17T18:29:12.591Z,59.19
2023-03-17T18:31:14.426Z,60.18
2023-03-17T18:33:16.040Z,63.03
2023-03-17T18:35:17.514Z,65.26
2023-03-17T18:37:18.638Z,65.46
2023-03-17T18:39:19.672Z,65.87
2023-03-17T18:41:21.417Z,65.72
2023-03-17T18:43:22.970Z,65.12
2023-03-17T18:45:24.127Z,64.54
2023-03-17T18:47:25.091Z,63.33
2023-03-17T18:51:28.340Z,67.65
2023-03-17T18:53:29.611Z,67.91
2023-03-17T18:55:31.321Z,67.8
2023-03-17T18:57:32.504Z,67.08
2023-03-17T19:01:35.336Z,66.38
2023-03-17T19:03:37.180Z,65.47
2023-03-17T19:05:38.161Z,64.03
2023-03-17T19:07:40.379Z,62.43
2023-03-17T19:09:40.341Z,66.03
2023-03-17T19:11:41.574Z,68.81
2023-03-17T19:13:43.283Z,70.8
2023-03-17T19:15:44.912Z,72
2023-03-17T19:17:46.363Z,71.81
2023-03-17T19:19:47.462Z,72.39
2023-03-17T19:21:49.268Z,73.41
2023-03-17T19:23:50.814Z,74.06
2023-03-17T19:25:52.229Z,73.99
2023-03-17T19:27:54.050Z,74.11
2023-03-17T19:29:55.230Z,73.74
2023-03-17T19:31:56.773Z,73.25
2023-03-17T19:33:58.144Z,73.49
2023-03-17T19:35:59.462Z,73.41
2023-03-17T19:38:00.840Z,73.36
2023-03-17T19:40:02.672Z,73.21
2023-03-17T19:42:03.938Z,72.91
2023-03-17T19:44:05.066Z,72.91
2023-03-17T19:46:06.972Z,73.47
2023-03-17T19:50:09.850Z,74.1
2023-03-17T19:52:11.563Z,73.73
2023-03-17T19:54:13.187Z,72.42
2023-03-17T19:56:14.761Z,72.69
2023-03-17T20:00:17.461Z,72.89
2023-03-17T20:02:18.414Z,74.63
2023-03-17T20:04:20.194Z,74.81
2023-03-17T20:06:21.209Z,71.08
2023-03-17T20:08:22.376Z,68.99
2023-03-17T20:10:24.144Z,66.99
2023-03-17T20:12:34.341Z,70.91
2023-03-17T20:14:26.943Z,72.22
2023-03-17T20:16:28.239Z,73.13
2023-03-17T20:18:30.104Z,73.29
2023-03-17T20:20:32.069Z,76.21
2023-03-17T20:22:32.998Z,76.79
2023-03-17T20:24:34.901Z,76.98
2023-03-17T20:26:35.811Z,79.22
2023-03-17T20:28:36.864Z,79.45
2023-03-17T20:30:38.101Z,79.08
2023-03-17T20:32:40.080Z,79.25
2023-03-17T20:34:41.310Z,78.61
2023-03-17T20:36:42.605Z,78.39
2023-03-17T20:38:44.160Z,78.28
2023-03-17T20:42:47.105Z,77.99
2023-03-17T20:44:48.413Z,77.94
2023-03-17T20:46:50.260Z,78.33
2023-03-17T20:48:51.776Z,78.24
2023-03-17T20:50:52.803Z,78.14
2023-03-17T20:52:54.735Z,78.39
2023-03-17T20:54:56.068Z,78.53
2023-03-17T20:56:57.880Z,79
2023-03-17T20:58:59.057Z,79.22
2023-03-17T21:01:00.244Z,78.87
2023-03-17T21:03:01.781Z,78.59
2023-03-17T21:05:03.565Z,78.39
2023-03-17T21:07:05.186Z,78.29
2023-03-17T21:09:07.128Z,78.35
2023-03-17T21:11:08.327Z,77.32
2023-03-17T21:15:10.656Z,80.32
2023-03-17T21:17:11.603Z,80.46
2023-03-17T21:19:13.181Z,80.3
2023-03-17T21:21:14.986Z,80.29
2023-03-17T21:25:17.988Z,79.78
2023-03-17T21:27:19.360Z,79.28
2023-03-17T21:29:21.257Z,78.96
2023-03-17T21:31:23.017Z,78.91
2023-03-17T21:33:24.475Z,78.66
2023-03-17T21:35:25.910Z,76.99
2023-03-17T21:37:27.746Z,75.72
2023-03-17T21:39:29.680Z,74.48
2023-03-17T21:41:31.152Z,73.41
2023-03-17T21:42:14.964Z,73.33
2023-03-17T21:44:16.103Z,73.15
2023-03-17T21:46:17.722Z,71.93
2023-03-17T21:48:19.311Z,72.59
2023-03-17T21:52:22.152Z,73.74
2023-03-17T21:54:23.305Z,74.48
2023-03-17T21:56:24.890Z,75.79
2023-03-17T21:58:26.474Z,76.39
2023-03-17T22:02:29.653Z,77.63
2023-03-17T22:04:30.846Z,77.78
2023-03-17T22:06:32.173Z,77.92
2023-03-17T22:08:33.863Z,78.11
2023-03-17T22:10:35.241Z,78.51
2023-03-17T22:12:37.107Z,79.4
2023-03-17T22:14:38.712Z,80.8
2023-03-17T22:16:40.011Z,81.5
2023-03-17T22:18:41.609Z,80.99
2023-03-17T22:20:43.259Z,80.35
2023-03-17T22:22:44.543Z,80.34
2023-03-17T22:24:45.744Z,80.11
2023-03-17T22:26:46.960Z,80.55
2023-03-17T22:28:48.900Z,80.7
2023-03-17T22:30:50.552Z,80.76
2023-03-17T22:32:52.103Z,80.65
2023-03-17T22:34:53.099Z,80.93
2023-03-17T22:36:54.746Z,80.62
2023-03-17T22:38:56.582Z,80.33
2023-03-17T22:40:58.483Z,80.87
2023-03-17T22:42:59.582Z,80.95
2023-03-17T22:45:00.651Z,81.92
2023-03-17T22:47:02.086Z,82.34
2023-03-17T22:51:05.299Z,82.79
2023-03-17T22:53:06.408Z,82.77
2023-03-17T22:55:07.625Z,82.34
2023-03-17T22:57:09.286Z,82.32
2023-03-17T23:01:12.560Z,82.79
2023-03-17T23:03:13.957Z,83.46
2023-03-17T23:05:15.057Z,83.08
2023-03-17T23:07:16.771Z,82.65
2023-03-17T23:09:18.151Z,82.6
2023-03-17T23:11:19.506Z,82.42
2023-03-17T23:13:20.818Z,82.3
2023-03-17T23:15:22.723Z,82.56
2023-03-17T23:17:24.121Z,82.43
2023-03-17T23:19:25.625Z,82.71
2023-03-17T23:21:27.210Z,83.14
2023-03-17T23:23:29.077Z,83.65
2023-03-17T23:25:30.441Z,83.86
2023-03-17T23:27:31.750Z,84.66
2023-03-17T23:29:33.653Z,84.46
2023-03-17T23:31:34.909Z,83.82
2023-03-17T23:33:36.167Z,83.93
2023-03-17T23:35:38.199Z,83.46
2023-03-17T23:37:39.138Z,83.22
2023-03-17T23:39:41.033Z,83.04
2023-03-17T23:43:44.068Z,83.3
2023-03-17T23:45:45.701Z,83.4
2023-03-17T23:47:46.638Z,83.52
2023-03-17T23:49:48.465Z,83.59
2023-03-17T23:51:49.818Z,83.78
2023-03-17T23:53:51.382Z,84.19
2023-03-17T23:55:53.032Z,84.14
2023-03-17T23:57:54.524Z,84.4
2023-03-17T23:59:56.421Z,84.37
